createdAt,value
2023-05-02T00:01:43.337Z,4.93
2023-05-02T00:04:11.129Z,4.30
2023-05-02T00:06:38.683Z,4.12
2023-05-02T00:09:06.211Z,4.22
2023-05-02T00:11:33.911Z,5.03
2023-05-02T00:14:01.434Z,5.30
2023-05-02T00:16:28.842Z,5.22
2023-05-02T00:18:56.626Z,3.25
2023-05-02T00:21:24.088Z,3.65
2023-05-02T00:23:51.913Z,4.22
2023-05-02T00:26:19.634Z,3.75
2023-05-02T00:28:47.286Z,3.83
2023-05-02T00:31:15.173Z,3.72
2023-05-02T00:33:42.939Z,5.43
2023-05-02T00:36:14.999Z,4.75
2023-05-02T00:38:42.789Z,4.43
2023-05-02T00:41:10.188Z,4.15
2023-05-02T00:43:39.616Z,4.22
2023-05-02T00:46:07.925Z,3.70
2023-05-02T00:48:35.499Z,3.05
2023-05-02T00:51:05.042Z,4.47
2023-05-02T00:56:00.365Z,4.37
2023-05-02T00:58:27.900Z,4.07
2023-05-02T01:00:59.228Z,4.47
2023-05-02T01:03:41.808Z,3.62
2023-05-02T01:06:16.800Z,4.60
2023-05-02T01:08:50.831Z,3.12
2023-05-02T01:11:48.872Z,6.57
2023-05-02T01:14:16.337Z,4.40
2023-05-02T01:16:44.226Z,5.22
2023-05-02T01:19:35.507Z,3.30
2023-05-02T01:22:08.003Z,3.78
2023-05-02T01:24:41.309Z,3.28
2023-05-02T01:27:28.487Z,2.90
2023-05-02T01:29:56.634Z,3.80
2023-05-02T01:32:24.538Z,6.00
2023-05-02T01:34:51.988Z,5.45
2023-05-02T01:37:19.786Z,3.37
2023-05-02T01:39:47.506Z,3.87
2023-05-02T01:42:15.065Z,4.93
2023-05-02T01:44:42.616Z,3.83
2023-05-02T01:47:10.334Z,3.17
2023-05-02T01:49:37.792Z,5.05
2023-05-02T01:52:05.902Z,3.42
2023-05-02T01:54:33.872Z,3.95
2023-05-02T01:57:01.470Z,3.72
2023-05-02T01:59:28.927Z,3.78
2023-05-02T02:01:56.675Z,3.72
2023-05-02T02:04:24.497Z,5.00
2023-05-02T02:06:55.759Z,5.82
2023-05-02T02:09:23.179Z,4.05
2023-05-02T02:11:57.645Z,4.15
2023-05-02T02:14:25.922Z,4.45
2023-05-02T02:16:55.386Z,3.47
2023-05-02T02:19:22.831Z,4.90
2023-05-02T02:21:51.154Z,5.32
2023-05-02T02:24:19.000Z,3.30
2023-05-02T02:26:46.581Z,4.60
2023-05-02T02:29:14.276Z,3.72
2023-05-02T02:31:41.686Z,6.85
2023-05-02T02:34:09.174Z,4.00
2023-05-02T02:36:45.933Z,4.72
2023-05-02T02:39:23.335Z,3.05
2023-05-02T02:42:04.467Z,4.87
2023-05-02T02:44:47.744Z,4.57
2023-05-02T02:47:26.344Z,4.10
2023-05-02T02:50:23.084Z,4.22
2023-05-02T02:52:55.017Z,4.15
2023-05-02T02:55:53.665Z,3.17
2023-05-02T02:58:43.636Z,4.03
2023-05-02T03:01:15.081Z,3.97
2023-05-02T03:03:43.218Z,4.20
2023-05-02T03:06:10.749Z,3.83
2023-05-02T03:08:44.303Z,5.00
2023-05-02T03:11:12.467Z,4.62
2023-05-02T03:13:39.889Z,3.97
2023-05-02T03:16:40.402Z,4.62
2023-05-02T03:19:08.653Z,3.70
2023-05-02T03:21:36.368Z,5.87
2023-05-02T03:24:05.856Z,4.75
2023-05-02T03:26:34.096Z,4.00
2023-05-02T03:29:01.805Z,3.83
2023-05-02T03:31:29.840Z,4.87
2023-05-02T03:33:58.707Z,5.87
2023-05-02T03:36:26.131Z,5.65
2023-05-02T03:38:53.881Z,3.90
2023-05-02T03:41:21.872Z,3.72
2023-05-02T03:43:52.003Z,5.43
2023-05-02T03:46:21.475Z,3.90
2023-05-02T03:48:49.258Z,6.05
2023-05-02T03:51:17.649Z,3.08
2023-05-02T03:53:46.292Z,4.90
2023-05-02T03:56:18.620Z,4.15
2023-05-02T03:58:47.206Z,5.30
2023-05-02T04:01:17.599Z,5.03
2023-05-02T04:03:47.286Z,5.45
2023-05-02T04:08:43.442Z,4.15
2023-05-02T04:11:11.440Z,3.40
2023-05-02T04:13:39.031Z,7.53
2023-05-02T04:16:07.706Z,4.70
2023-05-02T04:18:35.918Z,3.90
2023-05-02T04:21:04.018Z,5.60
2023-05-02T04:23:31.741Z,4.47
2023-05-02T04:25:59.769Z,4.93
2023-05-02T04:28:27.948Z,4.80
2023-05-02T04:30:57.408Z,5.95
2023-05-02T04:33:25.738Z,5.53
2023-05-02T04:35:53.686Z,5.50
2023-05-02T04:38:21.976Z,5.10
2023-05-02T04:40:51.656Z,4.65
2023-05-02T04:43:21.449Z,5.32
2023-05-02T04:45:51.175Z,4.62
2023-05-02T04:48:22.068Z,4.00
2023-05-02T04:50:49.777Z,7.65
2023-05-02T04:53:17.581Z,7.15
2023-05-02T04:55:44.988Z,4.97
2023-05-02T04:58:12.741Z,4.40
2023-05-02T05:00:41.272Z,5.28
2023-05-02T05:03:09.332Z,5.55
2023-05-02T05:05:36.864Z,6.55
2023-05-02T05:08:05.151Z,7.50
2023-05-02T05:10:33.193Z,4.05
2023-05-02T05:13:01.358Z,8.15
2023-05-02T05:15:29.150Z,8.48
2023-05-02T05:17:57.413Z,5.05
2023-05-02T05:20:25.237Z,3.50
2023-05-02T05:22:53.264Z,5.20
2023-05-02T05:25:20.992Z,3.85
2023-05-02T05:27:49.214Z,3.15
2023-05-02T05:30:17.151Z,3.85
2023-05-02T05:32:44.599Z,5.07
2023-05-02T05:35:12.117Z,3.55
2023-05-02T05:37:40.280Z,4.45
2023-05-02T05:40:08.776Z,4.07
2023-05-02T05:42:36.559Z,3.70
2023-05-02T05:45:05.969Z,3.22
2023-05-02T05:47:33.705Z,2.97
2023-05-02T05:50:02.228Z,5.37
2023-05-02T05:54:59.834Z,6.82
2023-05-02T05:57:27.594Z,6.07
2023-05-02T05:59:55.956Z,5.03
2023-05-02T06:02:23.943Z,7.78
2023-05-02T06:04:51.774Z,6.82
2023-05-02T06:07:19.878Z,4.57
2023-05-02T06:10:06.452Z,4.80
2023-05-02T06:12:34.807Z,4.87
2023-05-02T06:15:02.205Z,4.57
2023-05-02T06:17:31.394Z,6.70
2023-05-02T06:19:59.377Z,9.73
2023-05-02T06:22:27.895Z,7.57
2023-05-02T06:24:56.141Z,3.78
2023-05-02T06:27:23.886Z,9.80
2023-05-02T06:29:52.423Z,6.35
2023-05-02T06:32:20.011Z,5.18
2023-05-02T06:34:47.674Z,3.70
2023-05-02T06:37:15.167Z,5.10
2023-05-02T06:39:42.656Z,6.87
2023-05-02T06:42:10.397Z,5.00
2023-05-02T06:44:37.946Z,10.38
2023-05-02T06:47:06.734Z,6.07
2023-05-02T06:49:34.528Z,9.07
2023-05-02T06:52:02.218Z,6.68
2023-05-02T06:54:29.852Z,11.52
2023-05-02T06:56:57.596Z,7.47
2023-05-02T06:59:26.461Z,7.57
2023-05-02T07:01:53.902Z,6.40
2023-05-02T07:04:21.908Z,5.65
2023-05-02T07:06:49.581Z,5.55
2023-05-02T07:09:17.446Z,5.62
2023-05-02T07:11:45.181Z,7.10
2023-05-02T07:14:12.647Z,4.57
2023-05-02T07:16:40.074Z,4.65
2023-05-02T07:35:15.545Z,5.30
2023-05-02T07:40:47.057Z,5.15
2023-05-02T07:46:18.487Z,6.65
2023-05-02T07:54:59.380Z,7.53
2023-05-02T07:57:27.199Z,6.70
2023-05-02T07:59:57.255Z,6.07
2023-05-02T08:02:26.272Z,7.97
2023-05-02T08:04:54.193Z,5.20
2023-05-02T08:07:21.791Z,3.83
2023-05-02T08:09:49.176Z,3.95
2023-05-02T08:12:17.025Z,6.37
2023-05-02T08:14:44.504Z,6.28
2023-05-02T08:17:12.164Z,5.18
2023-05-02T08:19:39.887Z,6.87
2023-05-02T08:22:07.504Z,8.98
2023-05-02T08:24:34.982Z,5.45
2023-05-02T08:27:06.730Z,4.37
2023-05-02T08:29:34.155Z,5.90
2023-05-02T08:32:01.769Z,4.78
2023-05-02T08:34:29.524Z,6.85
2023-05-02T08:36:58.346Z,5.90
2023-05-02T08:39:26.018Z,4.55
2023-05-02T08:41:53.749Z,6.97
2023-05-02T08:44:21.158Z,6.45
2023-05-02T08:46:49.105Z,6.37
2023-05-02T08:49:16.946Z,4.95
2023-05-02T08:51:44.942Z,5.00
2023-05-02T08:54:12.451Z,5.90
2023-05-02T08:56:40.137Z,5.40
2023-05-02T08:59:08.193Z,6.47
2023-05-02T09:01:35.855Z,5.47
2023-05-02T09:04:04.854Z,4.68
2023-05-02T09:06:32.907Z,5.82
2023-05-02T09:09:01.552Z,6.05
2023-05-02T09:11:29.658Z,6.00
2023-05-02T09:13:59.066Z,6.35
2023-05-02T09:16:27.188Z,6.25
2023-05-02T09:18:56.125Z,6.75
2023-05-02T09:21:34.776Z,7.57
2023-05-02T09:24:03.943Z,4.57
2023-05-02T09:26:33.459Z,6.00
2023-05-02T09:29:01.892Z,5.10
2023-05-02T09:31:54.827Z,6.15
2023-05-02T09:34:23.502Z,4.47
2023-05-02T09:36:54.008Z,7.78
2023-05-02T09:39:23.808Z,4.45
2023-05-02T09:41:53.105Z,4.97
2023-05-02T09:44:22.433Z,4.45
2023-05-02T09:49:42.597Z,6.93
2023-05-02T09:52:11.542Z,6.62
2023-05-02T09:54:39.356Z,4.50
2023-05-02T09:57:07.406Z,5.35
2023-05-02T09:59:35.043Z,3.67
2023-05-02T10:02:03.633Z,7.90
2023-05-02T10:04:33.125Z,6.85
2023-05-02T10:07:00.756Z,4.22
2023-05-02T10:09:28.726Z,4.68
2023-05-02T10:11:56.682Z,6.03
2023-05-02T10:14:27.798Z,6.53
2023-05-02T10:17:01.690Z,5.32
2023-05-02T10:20:01.428Z,5.40
2023-05-02T10:22:29.120Z,6.47
2023-05-02T10:24:56.537Z,3.60
2023-05-02T10:27:24.100Z,4.50
2023-05-02T10:29:51.851Z,5.25
2023-05-02T10:32:19.372Z,6.03
2023-05-02T10:34:47.364Z,4.20
2023-05-02T10:37:15.053Z,4.40
2023-05-02T10:39:42.600Z,3.12
2023-05-02T10:42:10.569Z,4.37
2023-05-02T10:44:40.542Z,4.60
2023-05-02T10:47:27.349Z,4.30
2023-05-02T10:49:58.728Z,3.53
2023-05-02T10:52:36.850Z,4.50
2023-05-02T10:55:23.704Z,6.07
2023-05-02T10:58:00.220Z,3.65
2023-05-02T11:00:35.457Z,5.87
2023-05-02T11:03:03.281Z,5.10
2023-05-02T11:05:31.182Z,5.80
2023-05-02T11:08:21.274Z,4.82
2023-05-02T11:10:50.793Z,4.97
2023-05-02T11:13:18.428Z,5.05
2023-05-02T11:15:45.908Z,5.07
2023-05-02T11:18:14.278Z,5.37
2023-05-02T11:20:45.028Z,3.90
2023-05-02T11:23:16.013Z,4.50
2023-05-02T11:26:06.367Z,4.75
2023-05-02T11:28:36.712Z,3.97
2023-05-02T11:31:08.196Z,6.05
2023-05-02T11:33:36.802Z,5.05
2023-05-02T11:36:04.665Z,6.15
2023-05-02T11:38:37.311Z,6.85
2023-05-02T11:41:05.180Z,3.92
2023-05-02T11:43:33.004Z,5.18
2023-05-02T11:46:01.953Z,5.32
2023-05-02T11:48:30.242Z,6.25
2023-05-02T11:50:58.935Z,6.57
2023-05-02T11:53:28.958Z,9.73
2023-05-02T11:55:57.924Z,4.87
2023-05-02T11:58:29.909Z,5.40
2023-05-02T12:00:57.860Z,5.10
2023-05-02T12:03:29.070Z,5.03
2023-05-02T12:05:57.347Z,4.97
2023-05-02T12:08:27.411Z,9.75
2023-05-02T12:10:55.730Z,6.55
2023-05-02T12:13:24.436Z,8.48
2023-05-02T12:15:53.289Z,5.57
2023-05-02T12:18:23.875Z,5.37
2023-05-02T12:20:52.044Z,5.03
2023-05-02T12:23:20.961Z,3.72
2023-05-02T12:25:49.207Z,4.20
2023-05-02T12:28:20.037Z,4.85
2023-05-02T12:30:48.734Z,4.65
2023-05-02T12:33:17.424Z,5.47
2023-05-02T12:35:48.076Z,9.02
2023-05-02T12:38:17.569Z,7.18
2023-05-02T12:41:03.224Z,4.53
2023-05-02T12:43:45.857Z,5.40
2023-05-02T12:46:13.670Z,4.90
2023-05-02T12:48:41.373Z,7.12
2023-05-02T12:51:23.784Z,7.32
2023-05-02T12:53:51.535Z,5.90
2023-05-02T12:56:19.161Z,6.90
2023-05-02T12:58:47.389Z,4.97
2023-05-02T13:01:15.375Z,5.47
2023-05-02T13:03:43.414Z,7.78
2023-05-02T13:06:11.224Z,6.22
2023-05-02T13:08:39.329Z,4.78
2023-05-02T13:11:06.731Z,4.78
2023-05-02T13:13:35.432Z,5.35
2023-05-02T13:16:03.700Z,8.02
2023-05-02T13:18:31.262Z,7.80
2023-05-02T13:20:58.831Z,6.47
2023-05-02T13:23:26.575Z,17.87
2023-05-02T13:25:54.070Z,9.20
2023-05-02T13:28:21.696Z,8.95
2023-05-02T13:30:49.473Z,7.60
2023-05-02T13:33:16.932Z,10.45
2023-05-02T13:35:44.368Z,10.68
2023-05-02T13:38:12.091Z,8.98
2023-05-02T13:40:39.490Z,7.50
2023-05-02T13:43:06.915Z,6.45
2023-05-02T13:45:34.612Z,5.75
2023-05-02T13:48:02.154Z,7.62
2023-05-02T13:50:29.683Z,9.60
2023-05-02T13:52:57.410Z,7.18
2023-05-02T13:55:25.015Z,11.95
2023-05-02T13:57:52.445Z,5.53
2023-05-02T14:00:21.134Z,8.07
2023-05-02T14:02:48.630Z,9.35
2023-05-02T14:05:16.396Z,9.93
2023-05-02T14:07:43.800Z,6.93
2023-05-02T14:10:11.302Z,5.68
2023-05-02T14:12:39.000Z,5.82
2023-05-02T14:15:06.931Z,9.27
2023-05-02T14:17:34.401Z,8.48
2023-05-02T14:20:02.358Z,7.07
2023-05-02T14:22:30.507Z,10.32
2023-05-02T14:24:57.908Z,10.45
2023-05-02T14:27:25.878Z,7.53
2023-05-02T14:29:53.418Z,7.60
2023-05-02T14:32:21.676Z,12.90
2023-05-02T14:34:49.467Z,8.70
2023-05-02T14:37:16.909Z,7.70
2023-05-02T14:39:46.626Z,17.48
2023-05-02T14:42:15.711Z,8.73
2023-05-02T14:44:43.192Z,14.25
2023-05-02T14:47:10.778Z,10.40
2023-05-02T14:49:38.539Z,11.12
2023-05-02T14:52:06.034Z,7.85
2023-05-02T14:54:33.464Z,5.62
2023-05-02T14:57:02.236Z,9.10
2023-05-02T14:59:29.804Z,8.45
2023-05-02T15:01:57.425Z,9.02
2023-05-02T15:04:27.343Z,8.98
2023-05-02T15:06:56.047Z,9.07
2023-05-02T15:09:26.469Z,8.60
2023-05-02T15:11:54.276Z,11.68
2023-05-02T15:14:21.697Z,11.90
2023-05-02T15:16:49.222Z,12.82
2023-05-02T15:19:16.968Z,16.92
2023-05-02T15:21:44.617Z,10.32
2023-05-02T15:24:12.116Z,12.15
2023-05-02T15:26:41.021Z,10.18
2023-05-02T15:29:08.529Z,9.70
2023-05-02T15:31:36.340Z,8.02
2023-05-02T15:34:04.203Z,9.63
2023-05-02T15:36:32.784Z,9.50
2023-05-02T15:39:00.296Z,11.65
2023-05-02T15:41:28.114Z,12.55
2023-05-02T15:43:55.557Z,9.65
2023-05-02T15:46:23.016Z,12.57
2023-05-02T15:48:50.912Z,11.25
2023-05-02T15:51:18.470Z,11.90
2023-05-02T15:53:49.729Z,12.55
2023-05-02T15:56:17.522Z,18.40
2023-05-02T15:58:44.973Z,11.85
2023-05-02T16:01:12.461Z,9.43
2023-05-02T16:03:40.288Z,13.27
2023-05-02T16:06:07.936Z,9.52
2023-05-02T16:08:35.891Z,8.07
2023-05-02T16:11:03.616Z,7.37
2023-05-02T16:13:31.094Z,13.07
2023-05-02T16:15:58.607Z,11.20
2023-05-02T16:18:29.337Z,9.40
2023-05-02T16:20:59.862Z,9.07
2023-05-02T16:23:27.538Z,8.48
2023-05-02T16:26:01.641Z,8.00
2023-05-02T16:28:29.467Z,11.35
2023-05-02T16:30:57.114Z,12.32
2023-05-02T16:33:24.581Z,12.55
2023-05-02T16:36:01.468Z,7.80
2023-05-02T16:38:29.046Z,8.27
2023-05-02T16:40:57.429Z,8.52
2023-05-02T16:43:24.840Z,10.93
2023-05-02T16:46:07.727Z,10.57
2023-05-02T16:48:38.001Z,8.82
2023-05-02T16:51:05.790Z,8.80
2023-05-02T16:53:33.273Z,12.07
2023-05-02T16:56:01.078Z,8.07
2023-05-02T16:58:29.144Z,12.13
2023-05-02T17:00:57.006Z,8.55
2023-05-02T17:03:24.853Z,14.07
2023-05-02T17:05:52.245Z,14.40
2023-05-02T17:08:19.690Z,9.73
2023-05-02T17:10:50.498Z,10.13
2023-05-02T17:13:17.900Z,9.18
2023-05-02T17:15:45.331Z,12.05
2023-05-02T17:18:13.107Z,9.55
2023-05-02T17:20:41.404Z,11.18
2023-05-02T17:23:09.125Z,8.00
2023-05-02T17:25:36.959Z,8.23
2023-05-02T17:28:04.369Z,10.10
2023-05-02T17:30:32.175Z,14.52
2023-05-02T17:33:00.512Z,10.35
2023-05-02T17:35:28.252Z,6.95
2023-05-02T17:37:56.017Z,7.37
2023-05-02T17:40:24.340Z,7.53
2023-05-02T17:42:51.776Z,7.93
2023-05-02T17:45:19.281Z,13.95
2023-05-02T17:47:47.546Z,6.82
2023-05-02T17:50:15.632Z,7.68
2023-05-02T17:52:43.134Z,8.88
2023-05-02T17:55:10.870Z,17.52
2023-05-02T17:57:38.689Z,8.93
2023-05-02T18:00:08.078Z,9.00
2023-05-02T18:02:40.326Z,13.85
2023-05-02T18:05:08.308Z,10.07
2023-05-02T18:07:36.419Z,11.23
2023-05-02T18:10:05.364Z,9.57
2023-05-02T18:12:33.701Z,6.35
2023-05-02T18:15:05.587Z,9.93
2023-05-02T18:17:33.916Z,8.32
2023-05-02T18:20:04.310Z,6.35
2023-05-02T18:22:34.065Z,8.68
2023-05-02T18:25:02.416Z,11.18
2023-05-02T18:27:38.105Z,6.80
2023-05-02T18:30:07.454Z,9.18
2023-05-02T18:32:35.276Z,7.78
2023-05-02T18:35:04.171Z,7.85
2023-05-02T18:37:32.409Z,11.85
2023-05-02T18:40:00.752Z,5.97
2023-05-02T18:42:28.647Z,7.85
2023-05-02T18:44:56.648Z,8.18
2023-05-02T18:47:26.238Z,10.70
2023-05-02T18:49:56.453Z,10.15
2023-05-02T18:52:25.407Z,9.65
2023-05-02T18:55:13.881Z,8.70
2023-05-02T18:57:45.813Z,6.22
2023-05-02T19:00:14.459Z,8.80
2023-05-02T19:02:43.316Z,5.90
2023-05-02T19:05:11.394Z,6.70
2023-05-02T19:07:40.759Z,7.18
2023-05-02T19:10:09.456Z,7.25
2023-05-02T19:12:37.596Z,9.75
2023-05-02T19:15:06.946Z,7.40
2023-05-02T19:17:35.192Z,7.68
2023-05-02T19:20:03.429Z,8.85
2023-05-02T19:22:33.415Z,10.18
2023-05-02T19:25:02.307Z,9.68
2023-05-02T19:27:30.286Z,7.50
2023-05-02T19:30:00.100Z,9.93
2023-05-02T19:34:58.760Z,6.93
2023-05-02T19:37:27.691Z,7.57
2023-05-02T19:39:56.004Z,7.07
2023-05-02T19:42:25.103Z,8.05
2023-05-02T19:44:53.231Z,6.10
2023-05-02T19:47:22.856Z,8.88
2023-05-02T19:49:51.358Z,7.35
2023-05-02T19:52:19.189Z,7.70
2023-05-02T19:54:46.908Z,10.00
2023-05-02T19:57:14.504Z,8.90
2023-05-02T19:59:42.169Z,12.68
2023-05-02T20:02:12.255Z,9.77
2023-05-02T20:07:08.616Z,8.98
2023-05-02T20:09:36.646Z,9.45
2023-05-02T20:12:04.551Z,13.05
2023-05-02T20:14:32.288Z,8.77
2023-05-02T20:17:01.807Z,10.25
2023-05-02T20:19:32.264Z,12.25
2023-05-02T20:21:59.842Z,7.45
2023-05-02T20:24:27.591Z,10.80
2023-05-02T20:26:55.689Z,7.72
2023-05-02T20:29:24.050Z,10.32
2023-05-02T20:31:51.542Z,7.60
2023-05-02T20:34:19.609Z,8.13
2023-05-02T20:36:47.380Z,12.27
2023-05-02T20:39:16.005Z,7.57
2023-05-02T20:41:45.003Z,9.70
2023-05-02T20:44:15.176Z,5.85
2023-05-02T20:46:42.638Z,8.32
2023-05-02T20:49:10.306Z,8.60
2023-05-02T20:51:37.739Z,8.27
2023-05-02T20:54:05.229Z,8.80
2023-05-02T20:56:32.955Z,5.82
2023-05-02T20:59:00.553Z,6.55
2023-05-02T21:01:27.994Z,8.73
2023-05-02T21:03:57.156Z,9.32
2023-05-02T21:06:24.785Z,4.62
2023-05-02T21:08:55.118Z,7.00
2023-05-02T21:11:22.799Z,7.07
2023-05-02T21:13:50.280Z,9.48
2023-05-02T21:16:18.496Z,6.18
2023-05-02T21:18:46.779Z,5.57
2023-05-02T21:21:14.187Z,7.45
2023-05-02T21:23:41.678Z,6.12
2023-05-02T21:26:09.360Z,7.55
2023-05-02T21:28:38.556Z,6.78
2023-05-02T21:31:07.148Z,9.25
2023-05-02T21:33:34.884Z,6.87
2023-05-02T21:36:02.328Z,5.80
2023-05-02T21:38:29.741Z,4.87
2023-05-02T21:41:01.321Z,5.43
2023-05-02T21:43:29.727Z,5.10
2023-05-02T21:45:57.409Z,5.85
2023-05-02T21:48:24.825Z,8.60
2023-05-02T21:50:52.220Z,9.15
2023-05-02T21:53:19.965Z,11.93
2023-05-02T21:55:47.345Z,5.87
2023-05-02T21:58:14.735Z,6.12
2023-05-02T22:00:43.380Z,6.45
2023-05-02T22:03:14.026Z,9.00
2023-05-02T22:05:41.775Z,6.78
2023-05-02T22:08:09.972Z,4.95
2023-05-02T22:10:38.682Z,5.35
2023-05-02T22:13:09.431Z,6.93
2023-05-02T22:15:37.661Z,9.10
2023-05-02T22:18:06.869Z,3.85
2023-05-02T22:20:36.191Z,4.50
2023-05-02T22:23:04.945Z,4.57
2023-05-02T22:25:32.649Z,5.90
2023-05-02T22:28:03.915Z,8.13
2023-05-02T22:30:31.332Z,6.80
2023-05-02T22:32:59.180Z,6.53
2023-05-02T22:35:26.666Z,5.93
2023-05-02T22:37:54.119Z,5.97
2023-05-02T22:40:21.801Z,7.37
2023-05-02T22:42:49.197Z,5.70
2023-05-02T22:45:16.804Z,5.68
2023-05-02T22:47:44.482Z,7.35
2023-05-02T22:50:12.927Z,5.40
2023-05-02T22:52:40.929Z,7.60
2023-05-02T22:55:09.517Z,5.28
2023-05-02T22:57:37.268Z,4.82
2023-05-02T23:00:05.509Z,8.68
2023-05-02T23:02:34.084Z,4.53
2023-05-02T23:05:02.013Z,5.97
2023-05-02T23:07:29.666Z,7.10
2023-05-02T23:09:57.311Z,5.55
2023-05-02T23:12:24.668Z,8.25
2023-05-02T23:14:52.076Z,6.53
2023-05-02T23:17:19.724Z,5.45
2023-05-02T23:19:47.143Z,5.78
2023-05-02T23:22:14.641Z,5.75
2023-05-02T23:24:42.327Z,3.75
2023-05-02T23:27:09.781Z,5.60
2023-05-02T23:29:37.390Z,6.05
2023-05-02T23:32:08.061Z,5.12
2023-05-02T23:34:38.301Z,6.62
2023-05-02T23:37:06.920Z,4.25
2023-05-02T23:39:34.458Z,4.80
2023-05-02T23:42:03.822Z,5.85
2023-05-02T23:44:31.601Z,6.20
2023-05-02T23:46:59.639Z,5.47
2023-05-02T23:49:27.239Z,4.90
2023-05-02T23:51:54.971Z,7.12
2023-05-02T23:54:22.393Z,5.45
2023-05-02T23:56:49.929Z,5.12
2023-05-02T23:59:17.711Z,8.30
